createdAt,value
2016-11-03T00:00:42.677Z,0
2016-11-03T00:01:52.330Z,0
2016-11-03T00:03:02.615Z,0
2016-11-03T00:04:12.286Z,0
2016-11-03T00:05:22.652Z,0
2016-11-03T00:06:32.930Z,0
2016-11-03T00:07:42.597Z,0
2016-11-03T00:08:52.582Z,0
2016-11-03T00:10:02.554Z,0
2016-11-03T00:11:12.846Z,0
2016-11-03T00:12:22.552Z,0
2016-11-03T00:13:32.547Z,0
2016-11-03T00:14:42.841Z,0
2016-11-03T00:15:52.509Z,0
2016-11-03T00:17:02.837Z,0
2016-11-03T00:18:12.824Z,0
2016-11-03T00:19:23.113Z,0
2016-11-03T00:20:33.103Z,0
2016-11-03T00:21:43.392Z,0
2016-11-03T00:22:53.064Z,0
2016-11-03T00:24:03.368Z,0
2016-11-03T00:25:12.728Z,0
2016-11-03T00:26:22.698Z,0
2016-11-03T00:27:32.375Z,0
2016-11-03T00:28:42.085Z,0
2016-11-03T00:29:52.355Z,0
2016-11-03T00:31:02.344Z,0
2016-11-03T00:32:12.926Z,0
2016-11-03T00:33:22.904Z,0
2016-11-03T00:34:33.194Z,0
2016-11-03T00:35:43.483Z,0
2016-11-03T00:36:53.459Z,0
2016-11-03T00:38:03.444Z,0
2016-11-03T00:39:12.797Z,0
2016-11-03T00:40:22.769Z,0
2016-11-03T00:41:33.065Z,0
2016-11-03T00:42:42.742Z,0
2016-11-03T00:43:53.079Z,0
2016-11-03T00:45:03.364Z,0
2016-11-03T00:46:13.684Z,0
2016-11-03T00:47:23.658Z,0
2016-11-03T00:48:33.936Z,0
2016-11-03T00:49:43.906Z,0
2016-11-03T00:50:54.204Z,0
2016-11-03T00:52:04.268Z,0
2016-11-03T00:53:14.603Z,0
2016-11-03T00:54:25.120Z,0
2016-11-03T00:55:35.101Z,0
2016-11-03T00:56:45.374Z,0
2016-11-03T00:57:55.366Z,0
2016-11-03T00:59:05.340Z,0
2016-11-03T01:00:14.994Z,0
2016-11-03T01:01:25.284Z,0
2016-11-03T01:02:35.301Z,0
2016-11-03T01:03:45.594Z,0
2016-11-03T01:04:55.899Z,0
2016-11-03T01:06:06.194Z,0
2016-11-03T01:07:16.222Z,0
2016-11-03T01:08:26.519Z,0
2016-11-03T01:09:36.798Z,0
2016-11-03T01:10:47.089Z,0
2016-11-03T01:11:57.380Z,0
2016-11-03T01:13:07.676Z,0
2016-11-03T01:14:17.653Z,0
2016-11-03T01:15:27.354Z,0
2016-11-03T01:16:37.043Z,0
2016-11-03T01:17:47.027Z,0
2016-11-03T01:18:56.991Z,0
2016-11-03T01:20:07.289Z,0
2016-11-03T01:21:16.670Z,0
2016-11-03T01:22:26.639Z,0
2016-11-03T01:23:36.658Z,0
2016-11-03T01:24:46.933Z,0
2016-11-03T01:25:56.591Z,0
2016-11-03T01:27:06.588Z,0
2016-11-03T01:28:16.257Z,0
2016-11-03T01:29:26.541Z,0
2016-11-03T01:30:36.511Z,0
2016-11-03T01:31:46.797Z,0
2016-11-03T01:32:56.821Z,0
2016-11-03T01:34:07.111Z,0
2016-11-03T01:35:17.100Z,0
2016-11-03T01:36:27.085Z,0
2016-11-03T01:37:37.371Z,0
2016-11-03T01:38:47.342Z,0
2016-11-03T01:39:56.689Z,0
2016-11-03T01:41:06.347Z,0
2016-11-03T01:42:16.324Z,0
2016-11-03T01:43:26.623Z,0
2016-11-03T01:44:36.635Z,0
2016-11-03T01:45:46.307Z,0
2016-11-03T01:46:56.584Z,0
2016-11-03T01:48:05.936Z,0
2016-11-03T01:49:15.913Z,0
2016-11-03T01:50:26.426Z,0
2016-11-03T01:51:36.448Z,0
2016-11-03T01:52:46.436Z,0
2016-11-03T01:53:56.450Z,0
2016-11-03T01:55:06.118Z,0
2016-11-03T01:56:16.423Z,0
2016-11-03T01:57:26.710Z,0
2016-11-03T01:58:36.711Z,0
2016-11-03T01:59:46.993Z,0
2016-11-03T02:00:56.980Z,0
2016-11-03T02:02:06.638Z,0
2016-11-03T02:03:16.923Z,0
2016-11-03T02:04:26.914Z,0
2016-11-03T02:05:36.894Z,0
2016-11-03T02:06:46.874Z,0
2016-11-03T02:07:56.541Z,0
2016-11-03T02:09:06.571Z,0
2016-11-03T02:10:16.540Z,0
2016-11-03T02:11:26.890Z,0
2016-11-03T02:12:36.241Z,0
2016-11-03T02:13:45.921Z,0
2016-11-03T02:14:56.206Z,0
2016-11-03T02:16:05.573Z,0
2016-11-03T02:17:15.851Z,0
2016-11-03T02:18:25.524Z,0
2016-11-03T02:19:35.802Z,0
2016-11-03T02:20:46.083Z,0
2016-11-03T02:21:56.354Z,0
2016-11-03T02:23:06.342Z,0
2016-11-03T02:24:16.432Z,0
2016-11-03T02:25:26.722Z,0
2016-11-03T02:26:37.012Z,0
2016-11-03T02:27:47.293Z,0
2016-11-03T02:28:57.277Z,0
2016-11-03T02:30:07.252Z,0
2016-11-03T02:31:16.633Z,0
2016-11-03T02:32:26.905Z,0
2016-11-03T02:33:37.192Z,0
2016-11-03T02:34:47.209Z,0
2016-11-03T02:35:57.494Z,0
2016-11-03T02:37:07.787Z,0
2016-11-03T02:38:18.065Z,0
2016-11-03T02:39:27.734Z,0
2016-11-03T02:40:37.403Z,0
2016-11-03T02:41:47.730Z,0
2016-11-03T02:42:58.012Z,0
2016-11-03T02:44:07.673Z,0
2016-11-03T02:45:17.940Z,0
2016-11-03T02:46:28.233Z,0
2016-11-03T02:47:38.215Z,0
2016-11-03T02:48:48.484Z,0
2016-11-03T02:49:58.767Z,0
2016-11-03T02:51:08.753Z,0
2016-11-03T02:52:18.413Z,0
2016-11-03T02:53:28.077Z,0
2016-11-03T02:54:38.057Z,0
2016-11-03T02:55:48.016Z,0
2016-11-03T02:56:57.988Z,0
2016-11-03T02:58:08.277Z,0
2016-11-03T02:59:18.562Z,0
2016-11-03T03:00:28.256Z,0
2016-11-03T03:32:29.532Z,0
2016-11-03T03:33:39.819Z,0
2016-11-03T03:34:50.087Z,0
2016-11-03T03:36:00.093Z,0
2016-11-03T03:37:10.379Z,0
2016-11-03T03:38:20.668Z,0
2016-11-03T03:39:30.652Z,0
2016-11-03T03:40:40.976Z,0
2016-11-03T03:41:51.261Z,0
2016-11-03T03:43:01.562Z,0
2016-11-03T03:44:11.870Z,0
2016-11-03T03:45:21.535Z,0
2016-11-03T03:46:31.537Z,0
2016-11-03T03:47:41.824Z,0
2016-11-03T03:48:51.811Z,0
2016-11-03T03:50:02.094Z,0
2016-11-03T03:51:12.389Z,0
2016-11-03T03:52:22.367Z,0
2016-11-03T03:53:32.357Z,0
2016-11-03T03:54:42.669Z,0
2016-11-03T03:55:52.642Z,0
2016-11-03T03:57:02.928Z,0
2016-11-03T03:58:13.219Z,0
2016-11-03T03:59:23.542Z,0
2016-11-03T04:00:33.524Z,0
2016-11-03T04:01:43.840Z,0
2016-11-03T04:02:53.809Z,0
2016-11-03T04:04:03.799Z,0
2016-11-03T04:05:13.764Z,0
2016-11-03T04:06:23.455Z,0
2016-11-03T04:07:33.121Z,0
2016-11-03T04:08:42.779Z,0
2016-11-03T04:09:53.066Z,0
2016-11-03T04:11:02.779Z,0
2016-11-03T04:12:13.056Z,0
2016-11-03T04:13:23.337Z,0
2016-11-03T04:14:33.322Z,0
2016-11-03T04:15:43.615Z,0
2016-11-03T04:16:53.287Z,0
2016-11-03T04:18:03.582Z,0
2016-11-03T04:19:13.911Z,0
2016-11-03T04:20:23.877Z,0
2016-11-03T04:21:33.848Z,0
2016-11-03T04:22:44.134Z,0
2016-11-03T04:23:54.117Z,0
2016-11-03T04:25:03.778Z,0
2016-11-03T04:26:14.067Z,0
2016-11-03T04:27:24.359Z,0
2016-11-03T04:28:34.357Z,0
2016-11-03T04:29:44.663Z,0
2016-11-03T04:30:54.656Z,0
2016-11-03T04:32:04.937Z,0
2016-11-03T04:33:14.911Z,0
2016-11-03T04:34:25.188Z,0
2016-11-03T04:35:35.478Z,0
2016-11-03T04:36:45.525Z,0
2016-11-03T04:37:55.792Z,0
2016-11-03T04:39:05.489Z,0
2016-11-03T04:40:15.780Z,0
2016-11-03T04:41:26.066Z,0
2016-11-03T04:42:36.362Z,0
2016-11-03T04:43:46.335Z,0
2016-11-03T04:44:56.307Z,0
2016-11-03T04:46:05.988Z,0
2016-11-03T04:47:15.946Z,0
2016-11-03T04:48:25.912Z,0
2016-11-03T04:49:36.188Z,0
2016-11-03T04:50:46.479Z,0
2016-11-03T04:51:56.771Z,0
2016-11-03T04:53:07.045Z,0
2016-11-03T04:54:17.330Z,0
2016-11-03T04:55:27.636Z,0
2016-11-03T04:56:37.928Z,0
2016-11-03T04:57:48.215Z,0
2016-11-03T04:58:58.187Z,0
2016-11-03T05:00:07.894Z,0
2016-11-03T05:01:17.556Z,0
2016-11-03T05:02:27.557Z,0
2016-11-03T05:03:37.550Z,0
2016-11-03T05:04:47.521Z,0
2016-11-03T05:05:57.803Z,0
2016-11-03T05:07:07.469Z,0
2016-11-03T05:08:17.131Z,0
2016-11-03T05:09:27.121Z,0
2016-11-03T05:10:37.409Z,0
2016-11-03T05:11:47.139Z,0
2016-11-03T05:12:56.792Z,0
2016-11-03T05:14:07.087Z,0
2016-11-03T05:15:17.068Z,0
2016-11-03T05:16:27.349Z,0
2016-11-03T05:17:37.019Z,0
2016-11-03T05:18:47.352Z,0
2016-11-03T05:19:57.332Z,0
2016-11-03T05:21:06.989Z,0
2016-11-03T05:22:17.296Z,0
2016-11-03T05:23:27.610Z,0
2016-11-03T05:24:37.918Z,0
2016-11-03T05:25:48.195Z,0
2016-11-03T05:26:57.885Z,0
2016-11-03T05:28:07.867Z,0
2016-11-03T05:29:18.175Z,0
2016-11-03T05:30:28.151Z,0
2016-11-03T05:31:38.162Z,0
2016-11-03T05:32:48.140Z,0
2016-11-03T05:33:58.428Z,0
2016-11-03T05:35:08.409Z,0
2016-11-03T05:36:18.086Z,0
2016-11-03T05:37:28.099Z,0
2016-11-03T05:38:38.383Z,0
2016-11-03T05:39:48.357Z,0
2016-11-03T05:40:58.341Z,0
2016-11-03T05:42:08.324Z,0
2016-11-03T05:43:18.305Z,0
2016-11-03T05:44:28.581Z,0
2016-11-03T05:45:38.563Z,0
2016-11-03T05:46:48.237Z,0
2016-11-03T05:47:58.191Z,0
2016-11-03T05:49:07.863Z,0
2016-11-03T05:50:17.517Z,0
2016-11-03T05:51:27.182Z,0
2016-11-03T05:52:37.169Z,0
2016-11-03T05:53:47.445Z,0
2016-11-03T05:54:57.731Z,0
2016-11-03T05:56:07.710Z,0
2016-11-03T05:57:17.381Z,0
2016-11-03T05:58:27.048Z,0
2016-11-03T05:59:37.359Z,0
2016-11-03T06:00:47.324Z,0
2016-11-03T06:01:57.307Z,0
2016-11-03T06:03:07.590Z,0
2016-11-03T06:04:17.875Z,0
2016-11-03T06:05:28.166Z,0
2016-11-03T06:06:38.445Z,0
2016-11-03T06:07:48.461Z,0
2016-11-03T06:08:58.419Z,0
2016-11-03T06:10:08.383Z,0
2016-11-03T06:11:17.725Z,0
2016-11-03T06:12:27.073Z,0
2016-11-03T06:13:37.370Z,0
2016-11-03T06:14:47.346Z,0
2016-11-03T06:15:56.704Z,0
2016-11-03T06:17:06.988Z,0
2016-11-03T06:18:16.961Z,0
2016-11-03T06:19:26.627Z,0
2016-11-03T06:20:36.598Z,0
2016-11-03T06:21:46.582Z,0
2016-11-03T06:22:56.554Z,0
2016-11-03T06:24:06.824Z,0
2016-11-03T06:25:17.150Z,0
2016-11-03T06:26:27.432Z,0
2016-11-03T06:27:37.138Z,0
2016-11-03T06:28:47.440Z,0
2016-11-03T06:29:57.412Z,0
2016-11-03T06:31:07.695Z,0
2016-11-03T06:32:17.664Z,5
2016-11-03T06:33:27.627Z,5
2016-11-03T06:34:37.904Z,5
2016-11-03T06:35:47.581Z,5
2016-11-03T06:36:57.567Z,5
2016-11-03T06:38:07.228Z,5
2016-11-03T06:39:17.217Z,5
2016-11-03T06:40:27.513Z,5
2016-11-03T06:41:37.494Z,5
2016-11-03T06:42:47.782Z,5
2016-11-03T06:43:57.764Z,5
2016-11-03T06:45:08.064Z,10
2016-11-03T06:46:18.342Z,10
2016-11-03T06:47:28.624Z,15
2016-11-03T06:48:38.611Z,20
2016-11-03T06:49:48.935Z,25
2016-11-03T06:50:59.238Z,30
2016-11-03T06:52:09.525Z,35
2016-11-03T06:53:19.201Z,35
2016-11-03T06:54:28.860Z,35
2016-11-03T06:55:38.569Z,40
2016-11-03T06:56:48.855Z,40
2016-11-03T06:57:58.502Z,45
2016-11-03T06:59:08.478Z,50
2016-11-03T07:00:18.482Z,45
2016-11-03T07:01:28.460Z,40
2016-11-03T07:02:38.763Z,35
2016-11-03T07:03:49.065Z,40
2016-11-03T07:04:59.058Z,40
2016-11-03T07:06:09.030Z,55
2016-11-03T07:07:19.020Z,65
2016-11-03T07:08:29.022Z,70
2016-11-03T07:09:39.323Z,70
2016-11-03T07:10:49.286Z,70
2016-11-03T07:11:59.261Z,70
2016-11-03T07:13:09.239Z,70
2016-11-03T07:14:19.565Z,70
2016-11-03T07:15:29.857Z,70
2016-11-03T07:16:40.191Z,75
2016-11-03T07:17:50.491Z,75
2016-11-03T07:19:00.791Z,70
2016-11-03T07:20:11.128Z,70
2016-11-03T07:21:21.104Z,75
2016-11-03T07:22:30.792Z,75
2016-11-03T07:23:41.113Z,80
2016-11-03T07:24:51.460Z,85
2016-11-03T07:26:01.812Z,105
2016-11-03T07:27:11.469Z,85
2016-11-03T07:28:21.434Z,80
2016-11-03T07:29:31.406Z,80
2016-11-03T07:30:41.384Z,85
2016-11-03T07:31:51.673Z,85
2016-11-03T07:33:01.947Z,85
2016-11-03T07:34:11.938Z,90
2016-11-03T07:35:22.234Z,95
2016-11-03T07:36:32.216Z,95
2016-11-03T07:37:42.516Z,90
2016-11-03T07:38:51.877Z,85
2016-11-03T07:40:02.155Z,90
2016-11-03T07:41:12.118Z,90
2016-11-03T07:42:22.417Z,90
2016-11-03T07:43:32.698Z,90
2016-11-03T07:44:42.715Z,85
2016-11-03T07:45:53.019Z,85
2016-11-03T07:47:03.305Z,85
2016-11-03T07:48:13.295Z,85
2016-11-03T07:49:23.272Z,90
2016-11-03T07:50:33.242Z,90
2016-11-03T07:51:43.558Z,95
2016-11-03T07:52:53.841Z,95
2016-11-03T07:54:03.497Z,100
2016-11-03T07:55:13.779Z,105
2016-11-03T07:56:24.067Z,105
2016-11-03T07:57:34.061Z,110
2016-11-03T07:58:44.040Z,115
2016-11-03T07:59:54.311Z,115
2016-11-03T08:01:04.652Z,115
2016-11-03T08:02:14.739Z,115
2016-11-03T08:03:24.715Z,110
2016-11-03T08:04:35.033Z,110
2016-11-03T08:05:45.323Z,115
2016-11-03T08:06:55.289Z,120
2016-11-03T08:08:04.951Z,120
2016-11-03T08:09:15.227Z,120
2016-11-03T08:10:25.513Z,125
2016-11-03T08:11:35.191Z,125
2016-11-03T08:12:45.521Z,125
2016-11-03T08:13:55.494Z,120
2016-11-03T08:15:05.460Z,105
2016-11-03T08:16:15.541Z,100
2016-11-03T08:17:25.503Z,90
2016-11-03T08:18:35.803Z,80
2016-11-03T08:19:45.777Z,80
2016-11-03T08:20:56.058Z,80
2016-11-03T08:22:06.336Z,80
2016-11-03T08:23:16.305Z,80
2016-11-03T08:24:26.279Z,80
2016-11-03T08:25:36.568Z,80
2016-11-03T08:26:46.546Z,85
2016-11-03T08:27:56.832Z,90
2016-11-03T08:29:07.123Z,175
2016-11-03T08:30:17.406Z,110
2016-11-03T08:31:27.696Z,115
2016-11-03T08:32:37.362Z,180
2016-11-03T08:33:47.338Z,170
2016-11-03T08:34:57.621Z,100
2016-11-03T08:36:07.609Z,180
2016-11-03T08:37:17.880Z,180
2016-11-03T08:38:28.156Z,180
2016-11-03T08:39:38.433Z,180
2016-11-03T08:40:48.714Z,185
2016-11-03T08:41:58.998Z,185
2016-11-03T08:43:09.286Z,190
2016-11-03T08:44:19.578Z,190
2016-11-03T08:45:29.904Z,190
2016-11-03T08:46:40.179Z,190
2016-11-03T08:47:49.858Z,190
2016-11-03T08:48:59.848Z,190
2016-11-03T08:50:10.133Z,190
2016-11-03T08:51:20.115Z,195
2016-11-03T08:52:30.401Z,195
2016-11-03T08:53:40.392Z,200
2016-11-03T08:54:50.729Z,200
2016-11-03T08:56:00.721Z,205
2016-11-03T08:57:11.007Z,205
2016-11-03T08:58:20.988Z,205
2016-11-03T08:59:31.273Z,210
2016-11-03T09:00:41.567Z,195
2016-11-03T09:01:51.859Z,225
2016-11-03T09:03:01.530Z,135
2016-11-03T09:04:11.826Z,235
2016-11-03T09:05:22.094Z,245
2016-11-03T09:06:32.085Z,240
2016-11-03T09:07:42.377Z,235
2016-11-03T09:08:52.653Z,230
2016-11-03T09:10:02.635Z,235
2016-11-03T09:11:12.976Z,240
2016-11-03T09:12:23.268Z,255
2016-11-03T09:13:33.561Z,270
2016-11-03T09:14:43.527Z,225
2016-11-03T09:15:53.828Z,290
2016-11-03T09:17:04.105Z,290
2016-11-03T09:18:14.407Z,275
2016-11-03T09:19:24.708Z,195
2016-11-03T09:20:34.995Z,195
2016-11-03T09:21:45.311Z,190
2016-11-03T09:22:55.624Z,170
2016-11-03T09:24:05.643Z,265
2016-11-03T09:25:15.305Z,165
2016-11-03T09:26:25.287Z,145
2016-11-03T09:27:35.575Z,140
2016-11-03T09:28:45.551Z,155
2016-11-03T09:29:55.892Z,265
2016-11-03T09:31:06.179Z,245
2016-11-03T09:32:16.481Z,185
2016-11-03T09:33:26.479Z,210
2016-11-03T09:34:36.988Z,235
2016-11-03T09:35:46.970Z,110
2016-11-03T09:36:56.953Z,115
2016-11-03T09:38:07.245Z,190
2016-11-03T09:39:17.549Z,155
2016-11-03T09:40:27.833Z,120
2016-11-03T09:41:37.807Z,115
2016-11-03T09:42:48.100Z,115
2016-11-03T09:43:58.391Z,235
2016-11-03T09:45:08.679Z,195
2016-11-03T09:46:18.661Z,115
2016-11-03T09:47:28.652Z,120
2016-11-03T09:48:38.949Z,135
2016-11-03T09:49:48.921Z,235
2016-11-03T09:50:58.903Z,250
2016-11-03T09:52:09.192Z,130
2016-11-03T09:53:18.902Z,130
2016-11-03T09:54:29.197Z,140
2016-11-03T09:55:39.470Z,255
2016-11-03T09:56:49.459Z,255
2016-11-03T09:57:59.738Z,220
2016-11-03T09:59:09.708Z,120
2016-11-03T10:00:20.043Z,120
2016-11-03T10:01:30.380Z,240
2016-11-03T10:02:40.380Z,240
2016-11-03T10:03:50.668Z,180
2016-11-03T10:05:01.003Z,105
2016-11-03T10:06:11.281Z,110
2016-11-03T10:07:21.584Z,120
2016-11-03T10:08:34.434Z,135
2016-11-03T10:09:45.433Z,110
2016-11-03T10:10:55.541Z,115
2016-11-03T10:12:05.586Z,115
2016-11-03T10:13:15.773Z,245
2016-11-03T10:14:26.332Z,125
2016-11-03T10:15:36.662Z,115
2016-11-03T10:16:47.041Z,120
2016-11-03T10:17:57.521Z,210
2016-11-03T10:19:07.516Z,265
2016-11-03T10:20:17.846Z,250
2016-11-03T10:21:28.167Z,115
2016-11-03T10:22:38.536Z,190
2016-11-03T10:23:48.923Z,255
2016-11-03T10:24:59.039Z,270
2016-11-03T10:26:09.748Z,265
2016-11-03T10:27:20.075Z,220
2016-11-03T10:28:30.435Z,170
2016-11-03T10:29:40.909Z,280
2016-11-03T10:30:51.342Z,280
2016-11-03T10:32:01.706Z,285
2016-11-03T10:33:11.419Z,295
2016-11-03T10:34:22.116Z,295
2016-11-03T10:35:32.536Z,295
2016-11-03T10:36:42.885Z,300
2016-11-03T10:37:52.928Z,295
2016-11-03T10:39:03.284Z,280
2016-11-03T10:40:13.580Z,275
2016-11-03T10:41:23.912Z,265
2016-11-03T10:42:34.237Z,255
2016-11-03T10:43:44.304Z,255
2016-11-03T10:44:54.612Z,260
2016-11-03T10:46:04.937Z,275
2016-11-03T10:47:15.280Z,290
2016-11-03T10:48:25.627Z,170
2016-11-03T10:49:35.944Z,300
2016-11-03T10:50:46.324Z,300
2016-11-03T10:51:56.658Z,300
2016-11-03T10:53:06.972Z,290
2016-11-03T10:54:17.296Z,285
2016-11-03T10:55:27.601Z,285
2016-11-03T10:56:37.906Z,290
2016-11-03T10:57:48.217Z,280
2016-11-03T10:58:58.526Z,285
2016-11-03T11:00:08.521Z,285
2016-11-03T11:01:18.828Z,290
2016-11-03T11:02:29.140Z,290
2016-11-03T11:03:39.443Z,300
2016-11-03T11:04:49.439Z,295
2016-11-03T11:05:59.445Z,295
2016-11-03T11:07:09.753Z,295
2016-11-03T11:08:19.773Z,290
2016-11-03T11:09:30.063Z,285
2016-11-03T11:10:40.082Z,285
2016-11-03T11:11:50.064Z,285
2016-11-03T11:13:00.385Z,290
2016-11-03T11:14:10.103Z,290
2016-11-03T11:15:20.404Z,285
2016-11-03T11:16:30.711Z,170
2016-11-03T11:17:41.022Z,280
2016-11-03T11:18:51.016Z,250
2016-11-03T11:20:01.320Z,135
2016-11-03T11:21:11.638Z,130
2016-11-03T11:22:21.946Z,290
2016-11-03T11:23:32.310Z,285
2016-11-03T11:24:42.085Z,290
2016-11-03T11:25:52.394Z,285
2016-11-03T11:27:02.383Z,285
2016-11-03T11:28:12.835Z,285
2016-11-03T11:29:23.171Z,275
2016-11-03T11:30:33.189Z,270
2016-11-03T11:31:43.205Z,265
2016-11-03T11:32:53.205Z,260
2016-11-03T11:34:03.524Z,265
2016-11-03T11:35:13.900Z,260
2016-11-03T11:36:24.210Z,255
2016-11-03T11:37:34.203Z,260
2016-11-03T11:38:44.499Z,265
2016-11-03T11:39:54.788Z,260
2016-11-03T11:41:05.146Z,260
2016-11-03T11:42:15.431Z,260
2016-11-03T11:43:25.436Z,260
2016-11-03T11:44:35.746Z,265
2016-11-03T11:45:45.772Z,265
2016-11-03T11:46:56.066Z,270
2016-11-03T11:48:06.374Z,270
2016-11-03T11:49:16.704Z,280
2016-11-03T11:50:26.705Z,285
2016-11-03T11:51:36.692Z,285
2016-11-03T11:52:47.006Z,285
2016-11-03T11:53:57.299Z,235
2016-11-03T11:55:07.615Z,275
2016-11-03T11:56:17.659Z,285
2016-11-03T11:57:27.660Z,290
2016-11-03T11:58:37.960Z,285
2016-11-03T11:59:47.984Z,280
2016-11-03T12:00:58.321Z,215
2016-11-03T12:02:08.623Z,155
2016-11-03T12:03:18.943Z,200
2016-11-03T12:04:29.270Z,260
2016-11-03T12:05:39.629Z,200
2016-11-03T12:06:49.628Z,160
2016-11-03T12:07:59.945Z,210
2016-11-03T12:09:09.647Z,155
2016-11-03T12:10:19.941Z,165
2016-11-03T12:11:30.242Z,275
2016-11-03T12:12:40.239Z,290
2016-11-03T12:13:50.242Z,290
2016-11-03T12:15:00.233Z,290
2016-11-03T12:16:10.558Z,290
2016-11-03T12:17:20.555Z,275
2016-11-03T12:18:30.548Z,250
2016-11-03T12:19:40.903Z,155
2016-11-03T12:20:50.895Z,165
2016-11-03T12:22:01.208Z,155
2016-11-03T12:23:10.889Z,150
2016-11-03T12:24:20.879Z,140
2016-11-03T12:25:30.889Z,140
2016-11-03T12:26:41.179Z,140
2016-11-03T12:27:51.181Z,140
2016-11-03T12:29:01.173Z,135
2016-11-03T12:30:10.952Z,140
2016-11-03T12:31:21.276Z,145
2016-11-03T12:32:31.573Z,135
2016-11-03T12:33:41.284Z,135
2016-11-03T12:34:51.640Z,140
2016-11-03T12:36:01.334Z,135
2016-11-03T12:37:11.329Z,140
2016-11-03T12:38:21.322Z,145
2016-11-03T12:39:31.304Z,260
2016-11-03T12:40:41.285Z,235
2016-11-03T12:41:51.577Z,255
2016-11-03T12:43:01.880Z,250
2016-11-03T12:44:12.180Z,245
2016-11-03T12:45:21.856Z,245
2016-11-03T12:46:32.169Z,240
2016-11-03T12:47:42.459Z,230
2016-11-03T12:48:52.751Z,220
2016-11-03T12:50:02.443Z,215
2016-11-03T12:51:12.748Z,180
2016-11-03T12:52:22.433Z,215
2016-11-03T12:53:32.829Z,210
2016-11-03T12:54:43.146Z,210
2016-11-03T12:55:53.464Z,210
2016-11-03T12:57:03.754Z,215
2016-11-03T12:58:14.070Z,210
2016-11-03T12:59:24.386Z,205
2016-11-03T13:00:34.697Z,205
2016-11-03T13:01:45.046Z,205
2016-11-03T13:02:55.351Z,205
2016-11-03T13:04:05.034Z,205
2016-11-03T13:05:15.308Z,200
2016-11-03T13:06:25.331Z,200
2016-11-03T13:07:35.618Z,195
2016-11-03T13:08:44.678Z,195
2016-11-03T13:09:54.661Z,195
2016-11-03T13:11:04.652Z,190
2016-11-03T13:12:14.676Z,155
2016-11-03T13:13:24.663Z,95
2016-11-03T13:14:34.670Z,90
2016-11-03T13:15:44.981Z,165
2016-11-03T13:16:55.296Z,185
2016-11-03T13:18:05.595Z,190
2016-11-03T13:19:15.585Z,180
2016-11-03T13:20:26.132Z,160
2016-11-03T13:21:35.849Z,85
2016-11-03T13:22:45.243Z,170
2016-11-03T13:23:55.227Z,175
2016-11-03T13:25:05.205Z,165
2016-11-03T13:26:15.194Z,150
2016-11-03T13:27:25.174Z,85
2016-11-03T13:28:35.491Z,170
2016-11-03T13:29:45.816Z,170
2016-11-03T13:30:55.807Z,165
2016-11-03T13:32:05.798Z,165
2016-11-03T13:33:15.796Z,165
2016-11-03T13:34:26.096Z,130
2016-11-03T13:35:36.425Z,80
2016-11-03T13:36:46.723Z,160
2016-11-03T13:37:56.728Z,160
2016-11-03T13:39:07.019Z,75
2016-11-03T13:40:17.320Z,155
2016-11-03T13:41:27.022Z,150
2016-11-03T13:42:37.038Z,150
2016-11-03T13:43:47.336Z,155
2016-11-03T13:44:56.999Z,150
2016-11-03T13:46:07.001Z,150
2016-11-03T13:47:17.299Z,150
2016-11-03T13:48:27.611Z,150
2016-11-03T13:49:37.628Z,145
2016-11-03T13:50:47.940Z,145
2016-11-03T13:51:57.634Z,145
2016-11-03T13:53:07.934Z,145
2016-11-03T13:54:18.306Z,140
2016-11-03T13:55:28.592Z,140
2016-11-03T13:56:38.944Z,140
2016-11-03T13:57:48.931Z,135
2016-11-03T13:58:58.921Z,135
2016-11-03T14:00:08.925Z,135
2016-11-03T14:01:18.921Z,135
2016-11-03T14:02:29.239Z,130
2016-11-03T14:03:39.250Z,125
2016-11-03T14:04:49.254Z,125
2016-11-03T14:05:58.946Z,120
2016-11-03T14:07:08.988Z,120
2016-11-03T14:08:19.293Z,120
2016-11-03T14:09:28.979Z,115
2016-11-03T14:10:39.320Z,115
2016-11-03T14:11:49.335Z,120
2016-11-03T14:12:59.320Z,120
2016-11-03T14:14:09.614Z,110
2016-11-03T14:15:19.324Z,110
2016-11-03T14:16:29.641Z,105
2016-11-03T14:17:39.650Z,105
2016-11-03T14:18:49.362Z,105
2016-11-03T14:19:59.673Z,100
2016-11-03T14:21:09.992Z,100
2016-11-03T14:22:19.993Z,100
2016-11-03T14:23:30.297Z,95
2016-11-03T14:24:40.620Z,90
2016-11-03T14:25:50.614Z,55
2016-11-03T14:27:00.918Z,75
2016-11-03T14:28:10.910Z,75
2016-11-03T14:29:21.211Z,85
2016-11-03T14:30:31.501Z,85
2016-11-03T14:31:41.797Z,85
2016-11-03T14:32:52.101Z,80
2016-11-03T14:34:02.397Z,80
2016-11-03T14:35:12.073Z,75
2016-11-03T14:36:22.360Z,70
2016-11-03T14:37:32.348Z,70
2016-11-03T14:38:42.343Z,45
2016-11-03T14:39:51.702Z,65
2016-11-03T14:41:01.730Z,65
2016-11-03T14:42:11.856Z,55
2016-11-03T14:43:22.033Z,40
2016-11-03T14:44:32.115Z,40
2016-11-03T14:45:42.451Z,40
2016-11-03T14:46:52.518Z,40
2016-11-03T14:48:02.850Z,35
2016-11-03T14:49:12.863Z,35
2016-11-03T14:50:22.880Z,35
2016-11-03T14:51:32.596Z,35
2016-11-03T14:52:42.915Z,35
2016-11-03T14:53:52.927Z,35
2016-11-03T14:55:03.241Z,30
2016-11-03T14:56:13.240Z,40
2016-11-03T14:57:23.267Z,30
2016-11-03T14:58:33.248Z,30
2016-11-03T14:59:43.532Z,30
2016-11-03T15:00:53.229Z,25
2016-11-03T15:02:03.511Z,25
2016-11-03T15:03:13.810Z,25
2016-11-03T15:04:23.824Z,25
2016-11-03T15:05:33.807Z,25
2016-11-03T15:06:43.789Z,20
2016-11-03T15:07:53.768Z,20
2016-11-03T15:09:03.793Z,20
2016-11-03T15:10:13.776Z,20
2016-11-03T15:11:23.765Z,20
2016-11-03T15:12:33.153Z,20
2016-11-03T15:13:43.475Z,15
2016-11-03T15:14:53.439Z,15
2016-11-03T15:16:03.423Z,15
2016-11-03T15:17:13.461Z,15
2016-11-03T15:18:23.756Z,15
2016-11-03T15:19:34.053Z,10
2016-11-03T15:20:44.331Z,10
2016-11-03T15:21:54.650Z,10
2016-11-03T15:23:04.635Z,10
2016-11-03T15:24:14.962Z,10
2016-11-03T15:25:25.262Z,5
2016-11-03T15:26:35.559Z,5
2016-11-03T15:27:45.881Z,5
2016-11-03T15:28:55.897Z,5
2016-11-03T15:30:05.914Z,5
2016-11-03T15:31:16.221Z,5
2016-11-03T15:32:26.507Z,5
2016-11-03T15:33:36.843Z,0
2016-11-03T15:34:46.885Z,0
2016-11-03T15:35:57.197Z,0
2016-11-03T15:37:07.497Z,0
2016-11-03T15:38:17.809Z,0
2016-11-03T15:39:27.776Z,0
2016-11-03T15:40:37.149Z,0
2016-11-03T15:41:47.453Z,0
2016-11-03T15:42:57.756Z,0
2016-11-03T15:44:07.784Z,0
2016-11-03T15:45:17.748Z,0
2016-11-03T15:46:28.065Z,0
2016-11-03T15:47:38.067Z,0
2016-11-03T15:48:47.751Z,0
2016-11-03T15:49:57.721Z,0
2016-11-03T15:51:07.723Z,0
2016-11-03T15:52:17.989Z,0
2016-11-03T15:53:28.265Z,0
2016-11-03T15:54:38.556Z,0
2016-11-03T15:55:48.888Z,0
2016-11-03T15:56:59.164Z,0
2016-11-03T15:58:09.136Z,0
2016-11-03T15:59:19.417Z,0
2016-11-03T16:00:29.405Z,0
2016-11-03T16:01:39.077Z,0
2016-11-03T16:02:49.413Z,0
2016-11-03T16:03:59.698Z,0
2016-11-03T16:05:09.986Z,0
2016-11-03T16:06:20.321Z,0
2016-11-03T16:07:30.307Z,0
2016-11-03T16:08:39.677Z,0
2016-11-03T16:09:49.992Z,0
2016-11-03T16:10:59.963Z,0
2016-11-03T16:12:09.990Z,0
2016-11-03T16:13:19.982Z,0
2016-11-03T16:14:30.291Z,0
2016-11-03T16:15:40.320Z,0
2016-11-03T16:16:50.617Z,0
2016-11-03T16:18:00.913Z,0
2016-11-03T16:19:10.908Z,0
2016-11-03T16:20:20.910Z,0
2016-11-03T16:21:30.697Z,0
2016-11-03T16:22:40.676Z,0
2016-11-03T16:23:51.343Z,0
2016-11-03T16:25:01.363Z,0
2016-11-03T16:26:11.660Z,0
2016-11-03T16:27:22.202Z,0
2016-11-03T16:28:31.562Z,0
2016-11-03T16:29:41.274Z,0
2016-11-03T16:30:51.266Z,0
2016-11-03T16:32:04.095Z,0
2016-11-03T16:33:14.413Z,0
2016-11-03T16:34:24.804Z,0
2016-11-03T16:35:35.139Z,0
2016-11-03T16:36:44.826Z,0
2016-11-03T16:37:54.831Z,0
2016-11-03T16:39:05.122Z,0
2016-11-03T16:40:15.106Z,0
2016-11-03T16:41:24.770Z,0
2016-11-03T16:42:35.140Z,0
2016-11-03T16:43:45.164Z,0
2016-11-03T16:44:55.494Z,0
2016-11-03T16:46:05.477Z,0
2016-11-03T16:47:15.763Z,0
2016-11-03T16:48:25.760Z,0
2016-11-03T16:49:35.731Z,0
2016-11-03T16:50:45.393Z,0
2016-11-03T16:51:55.690Z,0
2016-11-03T16:53:06.024Z,0
2016-11-03T16:54:15.699Z,0
2016-11-03T16:55:25.975Z,0
2016-11-03T16:56:35.969Z,0
2016-11-03T16:57:46.320Z,0
2016-11-03T16:58:56.324Z,0
2016-11-03T17:00:06.026Z,0
2016-11-03T17:01:16.051Z,0
2016-11-03T17:02:26.334Z,0
2016-11-03T17:03:36.320Z,0
2016-11-03T17:04:45.993Z,0
2016-11-03T17:05:55.983Z,0
2016-11-03T17:07:05.671Z,0
2016-11-03T17:08:15.668Z,0
2016-11-03T17:09:25.348Z,0
2016-11-03T17:10:35.326Z,0
2016-11-03T17:11:44.999Z,0
2016-11-03T17:12:55.303Z,0
2016-11-03T17:14:05.641Z,0
2016-11-03T17:15:15.318Z,0